sensor_id;sensor_type;location;lat;lon;timestamp;P1;durP1;ratioP1;P2;durP2;ratioP2
27612;SDS011;15036;48.094;-1.690;2023-09-19T00:00:21;8.82;;;1.75;;
27612;SDS011;15036;48.094;-1.690;2023-09-19T00:02:53;7.43;;;2.03;;
27612;SDS011;15036;48.094;-1.690;2023-09-19T00:05:24;8.25;;;1.73;;
27612;SDS011;15036;48.094;-1.690;2023-09-19T00:07:54;6.67;;;1.80;;
27612;SDS011;15036;48.094;-1.690;2023-09-19T00:10:23;8.52;;;2.22;;
27612;SDS011;15036;48.094;-1.690;2023-09-19T00:12:55;6.53;;;1.83;;
27612;SDS011;15036;48.094;-1.690;2023-09-19T00:15:21;7.07;;;1.80;;
27612;SDS011;15036;48.094;-1.690;2023-09-19T00:17:51;7.28;;;2.30;;
27612;SDS011;15036;48.094;-1.690;2023-09-19T00:20:17;5.45;;;2.05;;
27612;SDS011;15036;48.094;-1.690;2023-09-19T00:22:43;6.20;;;1.60;;
27612;SDS011;15036;48.094;-1.690;2023-09-19T00:25:09;6.82;;;1.98;;
27612;SDS011;15036;48.094;-1.690;2023-09-19T00:27:36;7.85;;;2.13;;
27612;SDS011;15036;48.094;-1.690;2023-09-19T00:30:06;10.80;;;2.22;;
27612;SDS011;15036;48.094;-1.690;2023-09-19T00:32:39;10.38;;;2.20;;
27612;SDS011;15036;48.094;-1.690;2023-09-19T00:35:04;5.97;;;1.98;;
27612;SDS011;15036;48.094;-1.690;2023-09-19T00:37:30;8.23;;;1.90;;
27612;SDS011;15036;48.094;-1.690;2023-09-19T00:39:55;7.13;;;2.10;;
27612;SDS011;15036;48.094;-1.690;2023-09-19T00:42:21;6.53;;;2.20;;
27612;SDS011;15036;48.094;-1.690;2023-09-19T00:44:47;5.75;;;2.33;;
27612;SDS011;15036;48.094;-1.690;2023-09-19T00:47:12;9.55;;;2.22;;
27612;SDS011;15036;48.094;-1.690;2023-09-19T00:49:43;8.25;;;2.10;;
27612;SDS011;15036;48.094;-1.690;2023-09-19T00:52:10;10.93;;;2.40;;
27612;SDS011;15036;48.094;-1.690;2023-09-19T00:54:37;11.32;;;2.20;;
27612;SDS011;15036;48.094;-1.690;2023-09-19T00:57:02;10.13;;;2.15;;
27612;SDS011;15036;48.094;-1.690;2023-09-19T00:59:28;6.75;;;2.00;;
27612;SDS011;15036;48.094;-1.690;2023-09-19T01:01:56;9.32;;;2.50;;
27612;SDS011;15036;48.094;-1.690;2023-09-19T01:04:21;8.43;;;2.25;;
27612;SDS011;15036;48.094;-1.690;2023-09-19T01:06:47;9.55;;;2.40;;
27612;SDS011;15036;48.094;-1.690;2023-09-19T01:09:18;11.63;;;2.72;;
27612;SDS011;15036;48.094;-1.690;2023-09-19T01:11:44;7.30;;;2.17;;
27612;SDS011;15036;48.094;-1.690;2023-09-19T01:29:17;9.50;;;2.63;;
27612;SDS011;15036;48.094;-1.690;2023-09-19T01:32:01;10.80;;;2.53;;
27612;SDS011;15036;48.094;-1.690;2023-09-19T01:34:43;9.13;;;2.17;;
27612;SDS011;15036;48.094;-1.690;2023-09-19T01:37:15;10.75;;;2.75;;
27612;SDS011;15036;48.094;-1.690;2023-09-19T01:39:48;9.60;;;2.38;;
27612;SDS011;15036;48.094;-1.690;2023-09-19T01:47:38;10.15;;;2.47;;
27612;SDS011;15036;48.094;-1.690;2023-09-19T01:52:38;9.88;;;2.65;;
27612;SDS011;15036;48.094;-1.690;2023-09-19T01:55:13;9.13;;;2.42;;
27612;SDS011;15036;48.094;-1.690;2023-09-19T01:57:48;8.57;;;2.40;;
27612;SDS011;15036;48.094;-1.690;2023-09-19T02:00:19;8.50;;;2.35;;
27612;SDS011;15036;48.094;-1.690;2023-09-19T02:02:47;14.32;;;2.72;;
27612;SDS011;15036;48.094;-1.690;2023-09-19T02:05:13;8.27;;;2.42;;
27612;SDS011;15036;48.094;-1.690;2023-09-19T02:07:46;11.55;;;2.40;;
27612;SDS011;15036;48.094;-1.690;2023-09-19T02:10:12;7.70;;;2.67;;
27612;SDS011;15036;48.094;-1.690;2023-09-19T02:12:37;10.88;;;2.67;;
27612;SDS011;15036;48.094;-1.690;2023-09-19T02:15:03;10.27;;;2.33;;
27612;SDS011;15036;48.094;-1.690;2023-09-19T02:17:32;10.80;;;2.65;;
27612;SDS011;15036;48.094;-1.690;2023-09-19T02:19:57;10.30;;;2.53;;
27612;SDS011;15036;48.094;-1.690;2023-09-19T02:22:23;12.30;;;2.38;;
27612;SDS011;15036;48.094;-1.690;2023-09-19T02:24:49;11.90;;;2.33;;
27612;SDS011;15036;48.094;-1.690;2023-09-19T02:27:16;13.63;;;3.00;;
27612;SDS011;15036;48.094;-1.690;2023-09-19T02:29:42;10.27;;;2.72;;
27612;SDS011;15036;48.094;-1.690;2023-09-19T02:32:08;11.32;;;2.40;;
27612;SDS011;15036;48.094;-1.690;2023-09-19T02:34:36;14.00;;;2.50;;
27612;SDS011;15036;48.094;-1.690;2023-09-19T02:37:05;10.20;;;2.40;;
27612;SDS011;15036;48.094;-1.690;2023-09-19T02:39:35;11.95;;;2.70;;
27612;SDS011;15036;48.094;-1.690;2023-09-19T02:42:01;11.10;;;2.53;;
27612;SDS011;15036;48.094;-1.690;2023-09-19T02:44:29;10.82;;;3.03;;
27612;SDS011;15036;48.094;-1.690;2023-09-19T02:46:54;11.77;;;2.80;;
27612;SDS011;15036;48.094;-1.690;2023-09-19T02:49:19;11.02;;;2.17;;
27612;SDS011;15036;48.094;-1.690;2023-09-19T02:51:45;10.63;;;2.70;;
27612;SDS011;15036;48.094;-1.690;2023-09-19T02:54:13;12.23;;;2.80;;
27612;SDS011;15036;48.094;-1.690;2023-09-19T02:56:40;10.50;;;2.65;;
27612;SDS011;15036;48.094;-1.690;2023-09-19T02:59:05;10.75;;;2.95;;
27612;SDS011;15036;48.094;-1.690;2023-09-19T03:01:31;9.82;;;2.50;;
27612;SDS011;15036;48.094;-1.690;2023-09-19T03:03:57;11.93;;;2.65;;
27612;SDS011;15036;48.094;-1.690;2023-09-19T03:06:23;11.23;;;2.42;;
27612;SDS011;15036;48.094;-1.690;2023-09-19T03:08:49;13.65;;;2.97;;
27612;SDS011;15036;48.094;-1.690;2023-09-19T03:11:16;10.63;;;2.70;;
27612;SDS011;15036;48.094;-1.690;2023-09-19T03:13:43;11.18;;;2.83;;
27612;SDS011;15036;48.094;-1.690;2023-09-19T03:16:10;10.93;;;2.42;;
27612;SDS011;15036;48.094;-1.690;2023-09-19T03:18:36;11.43;;;2.70;;
27612;SDS011;15036;48.094;-1.690;2023-09-19T03:21:02;9.18;;;2.28;;
27612;SDS011;15036;48.094;-1.690;2023-09-19T03:23:27;17.17;;;3.15;;
27612;SDS011;15036;48.094;-1.690;2023-09-19T03:25:56;12.38;;;2.67;;
27612;SDS011;15036;48.094;-1.690;2023-09-19T03:28:23;8.68;;;2.53;;
27612;SDS011;15036;48.094;-1.690;2023-09-19T03:30:58;9.77;;;2.70;;
27612;SDS011;15036;48.094;-1.690;2023-09-19T03:33:25;8.88;;;2.95;;
27612;SDS011;15036;48.094;-1.690;2023-09-19T03:35:54;8.70;;;2.50;;
27612;SDS011;15036;48.094;-1.690;2023-09-19T03:38:19;7.45;;;2.50;;
27612;SDS011;15036;48.094;-1.690;2023-09-19T03:40:46;12.93;;;2.60;;
27612;SDS011;15036;48.094;-1.690;2023-09-19T03:43:12;13.85;;;2.78;;
27612;SDS011;15036;48.094;-1.690;2023-09-19T03:45:37;13.68;;;2.60;;
27612;SDS011;15036;48.094;-1.690;2023-09-19T03:48:08;11.60;;;2.78;;
27612;SDS011;15036;48.094;-1.690;2023-09-19T03:50:36;17.17;;;3.28;;
27612;SDS011;15036;48.094;-1.690;2023-09-19T03:53:02;11.57;;;2.60;;
27612;SDS011;15036;48.094;-1.690;2023-09-19T03:55:28;15.55;;;2.95;;
27612;SDS011;15036;48.094;-1.690;2023-09-19T03:57:55;12.82;;;3.00;;
27612;SDS011;15036;48.094;-1.690;2023-09-19T04:00:21;11.73;;;3.10;;
27612;SDS011;15036;48.094;-1.690;2023-09-19T04:02:48;16.25;;;3.25;;
27612;SDS011;15036;48.094;-1.690;2023-09-19T04:05:14;13.30;;;3.17;;
27612;SDS011;15036;48.094;-1.690;2023-09-19T04:07:39;13.68;;;3.10;;
27612;SDS011;15036;48.094;-1.690;2023-09-19T04:10:05;13.90;;;2.70;;
27612;SDS011;15036;48.094;-1.690;2023-09-19T04:12:33;11.23;;;2.83;;
27612;SDS011;15036;48.094;-1.690;2023-09-19T04:14:59;11.32;;;2.67;;
27612;SDS011;15036;48.094;-1.690;2023-09-19T04:17:24;12.40;;;2.67;;
27612;SDS011;15036;48.094;-1.690;2023-09-19T04:19:49;10.77;;;3.00;;
27612;SDS011;15036;48.094;-1.690;2023-09-19T04:22:15;14.20;;;2.75;;
27612;SDS011;15036;48.094;-1.690;2023-09-19T04:24:40;11.82;;;2.75;;
27612;SDS011;15036;48.094;-1.690;2023-09-19T04:27:05;10.15;;;2.63;;
27612;SDS011;15036;48.094;-1.690;2023-09-19T04:29:32;11.40;;;2.60;;
27612;SDS011;15036;48.094;-1.690;2023-09-19T04:31:57;9.98;;;2.70;;
27612;SDS011;15036;48.094;-1.690;2023-09-19T04:34:23;10.90;;;2.70;;
27612;SDS011;15036;48.094;-1.690;2023-09-19T04:36:49;12.10;;;2.55;;
27612;SDS011;15036;48.094;-1.690;2023-09-19T04:39:14;8.70;;;2.90;;
27612;SDS011;15036;48.094;-1.690;2023-09-19T04:41:40;12.77;;;2.40;;
27612;SDS011;15036;48.094;-1.690;2023-09-19T04:44:06;9.23;;;2.55;;
27612;SDS011;15036;48.094;-1.690;2023-09-19T04:46:32;11.60;;;3.03;;
27612;SDS011;15036;48.094;-1.690;2023-09-19T04:48:58;8.55;;;2.65;;
27612;SDS011;15036;48.094;-1.690;2023-09-19T04:51:24;12.10;;;2.88;;
27612;SDS011;15036;48.094;-1.690;2023-09-19T04:53:50;14.52;;;2.70;;
27612;SDS011;15036;48.094;-1.690;2023-09-19T04:56:15;10.50;;;2.80;;
27612;SDS011;15036;48.094;-1.690;2023-09-19T04:58:41;11.88;;;3.05;;
27612;SDS011;15036;48.094;-1.690;2023-09-19T05:01:06;11.70;;;2.72;;
27612;SDS011;15036;48.094;-1.690;2023-09-19T05:03:36;13.07;;;2.90;;
27612;SDS011;15036;48.094;-1.690;2023-09-19T05:06:02;10.18;;;2.45;;
27612;SDS011;15036;48.094;-1.690;2023-09-19T05:08:27;13.73;;;3.00;;
27612;SDS011;15036;48.094;-1.690;2023-09-19T05:10:53;11.98;;;2.65;;
27612;SDS011;15036;48.094;-1.690;2023-09-19T05:13:18;11.80;;;3.00;;
27612;SDS011;15036;48.094;-1.690;2023-09-19T05:15:43;12.90;;;2.63;;
27612;SDS011;15036;48.094;-1.690;2023-09-19T05:18:09;10.75;;;3.10;;
27612;SDS011;15036;48.094;-1.690;2023-09-19T05:20:35;12.45;;;2.67;;
27612;SDS011;15036;48.094;-1.690;2023-09-19T05:23:03;11.02;;;2.90;;
27612;SDS011;15036;48.094;-1.690;2023-09-19T05:25:32;12.17;;;2.70;;
27612;SDS011;15036;48.094;-1.690;2023-09-19T05:28:02;11.83;;;3.40;;
27612;SDS011;15036;48.094;-1.690;2023-09-19T05:30:30;16.38;;;3.20;;
27612;SDS011;15036;48.094;-1.690;2023-09-19T05:32:56;10.68;;;2.67;;
27612;SDS011;15036;48.094;-1.690;2023-09-19T05:35:22;11.88;;;3.10;;
27612;SDS011;15036;48.094;-1.690;2023-09-19T05:37:50;7.35;;;2.83;;
27612;SDS011;15036;48.094;-1.690;2023-09-19T05:40:19;12.40;;;2.85;;
27612;SDS011;15036;48.094;-1.690;2023-09-19T05:42:45;11.85;;;2.92;;
27612;SDS011;15036;48.094;-1.690;2023-09-19T05:45:11;13.50;;;2.83;;
27612;SDS011;15036;48.094;-1.690;2023-09-19T05:47:37;11.52;;;2.92;;
27612;SDS011;15036;48.094;-1.690;2023-09-19T05:50:10;15.57;;;3.28;;
27612;SDS011;15036;48.094;-1.690;2023-09-19T05:52:36;13.35;;;3.33;;
27612;SDS011;15036;48.094;-1.690;2023-09-19T05:55:06;12.82;;;3.17;;
27612;SDS011;15036;48.094;-1.690;2023-09-19T05:57:33;13.35;;;3.53;;
27612;SDS011;15036;48.094;-1.690;2023-09-19T05:59:59;11.32;;;3.22;;
27612;SDS011;15036;48.094;-1.690;2023-09-19T06:02:24;10.80;;;2.80;;
27612;SDS011;15036;48.094;-1.690;2023-09-19T06:04:53;11.27;;;3.30;;
27612;SDS011;15036;48.094;-1.690;2023-09-19T06:07:20;14.15;;;3.33;;
27612;SDS011;15036;48.094;-1.690;2023-09-19T06:09:47;8.82;;;2.58;;
27612;SDS011;15036;48.094;-1.690;2023-09-19T06:12:12;11.00;;;3.22;;
27612;SDS011;15036;48.094;-1.690;2023-09-19T06:14:42;13.40;;;3.43;;
27612;SDS011;15036;48.094;-1.690;2023-09-19T06:17:08;10.73;;;3.05;;
27612;SDS011;15036;48.094;-1.690;2023-09-19T06:19:33;10.60;;;3.10;;
27612;SDS011;15036;48.094;-1.690;2023-09-19T06:21:59;10.15;;;3.10;;
27612;SDS011;15036;48.094;-1.690;2023-09-19T06:24:24;11.48;;;2.83;;
27612;SDS011;15036;48.094;-1.690;2023-09-19T06:26:50;11.55;;;3.20;;
27612;SDS011;15036;48.094;-1.690;2023-09-19T06:29:17;8.13;;;3.03;;
27612;SDS011;15036;48.094;-1.690;2023-09-19T06:31:43;12.60;;;2.72;;
27612;SDS011;15036;48.094;-1.690;2023-09-19T06:34:09;13.52;;;3.00;;
27612;SDS011;15036;48.094;-1.690;2023-09-19T06:36:35;9.75;;;2.85;;
27612;SDS011;15036;48.094;-1.690;2023-09-19T06:39:00;12.88;;;3.20;;
27612;SDS011;15036;48.094;-1.690;2023-09-19T06:41:26;11.63;;;2.78;;
27612;SDS011;15036;48.094;-1.690;2023-09-19T06:43:51;10.02;;;2.58;;
27612;SDS011;15036;48.094;-1.690;2023-09-19T06:46:19;11.10;;;3.00;;
27612;SDS011;15036;48.094;-1.690;2023-09-19T06:48:45;10.20;;;3.30;;
27612;SDS011;15036;48.094;-1.690;2023-09-19T06:51:12;12.20;;;2.60;;
27612;SDS011;15036;48.094;-1.690;2023-09-19T06:53:40;11.93;;;2.80;;
27612;SDS011;15036;48.094;-1.690;2023-09-19T06:56:06;13.57;;;3.20;;
27612;SDS011;15036;48.094;-1.690;2023-09-19T06:58:31;17.30;;;3.30;;
27612;SDS011;15036;48.094;-1.690;2023-09-19T07:00:56;10.70;;;2.80;;
27612;SDS011;15036;48.094;-1.690;2023-09-19T07:03:22;11.32;;;2.80;;
27612;SDS011;15036;48.094;-1.690;2023-09-19T07:05:50;10.57;;;3.22;;
27612;SDS011;15036;48.094;-1.690;2023-09-19T07:08:16;10.63;;;3.10;;
27612;SDS011;15036;48.094;-1.690;2023-09-19T07:10:42;10.40;;;2.97;;
27612;SDS011;15036;48.094;-1.690;2023-09-19T07:13:13;13.23;;;2.90;;
27612;SDS011;15036;48.094;-1.690;2023-09-19T07:15:42;12.60;;;2.95;;
27612;SDS011;15036;48.094;-1.690;2023-09-19T07:18:15;9.80;;;3.15;;
27612;SDS011;15036;48.094;-1.690;2023-09-19T07:20:42;10.18;;;2.90;;
27612;SDS011;15036;48.094;-1.690;2023-09-19T07:23:20;10.65;;;2.70;;
27612;SDS011;15036;48.094;-1.690;2023-09-19T07:25:51;11.60;;;2.70;;
27612;SDS011;15036;48.094;-1.690;2023-09-19T07:28:16;16.02;;;3.45;;
27612;SDS011;15036;48.094;-1.690;2023-09-19T07:30:42;11.30;;;2.80;;
27612;SDS011;15036;48.094;-1.690;2023-09-19T07:33:07;11.80;;;2.80;;
27612;SDS011;15036;48.094;-1.690;2023-09-19T07:35:36;7.55;;;2.40;;
27612;SDS011;15036;48.094;-1.690;2023-09-19T07:38:02;10.15;;;2.90;;
27612;SDS011;15036;48.094;-1.690;2023-09-19T07:40:28;12.05;;;2.67;;
27612;SDS011;15036;48.094;-1.690;2023-09-19T07:42:54;13.45;;;3.20;;
27612;SDS011;15036;48.094;-1.690;2023-09-19T07:45:20;10.82;;;2.78;;
27612;SDS011;15036;48.094;-1.690;2023-09-19T07:47:46;12.63;;;2.90;;
27612;SDS011;15036;48.094;-1.690;2023-09-19T07:50:12;11.30;;;2.97;;
27612;SDS011;15036;48.094;-1.690;2023-09-19T07:52:38;8.43;;;3.00;;
27612;SDS011;15036;48.094;-1.690;2023-09-19T07:55:05;12.23;;;3.00;;
27612;SDS011;15036;48.094;-1.690;2023-09-19T07:57:35;13.15;;;2.80;;
27612;SDS011;15036;48.094;-1.690;2023-09-19T08:00:01;9.63;;;2.60;;
27612;SDS011;15036;48.094;-1.690;2023-09-19T08:02:35;12.23;;;3.35;;
27612;SDS011;15036;48.094;-1.690;2023-09-19T08:05:03;14.75;;;3.05;;
27612;SDS011;15036;48.094;-1.690;2023-09-19T08:07:31;10.57;;;2.65;;
27612;SDS011;15036;48.094;-1.690;2023-09-19T08:10:01;9.35;;;2.50;;
27612;SDS011;15036;48.094;-1.690;2023-09-19T08:12:26;9.48;;;2.70;;
27612;SDS011;15036;48.094;-1.690;2023-09-19T08:14:52;11.25;;;3.08;;
27612;SDS011;15036;48.094;-1.690;2023-09-19T08:17:17;10.80;;;2.83;;
27612;SDS011;15036;48.094;-1.690;2023-09-19T08:19:45;10.13;;;2.90;;
27612;SDS011;15036;48.094;-1.690;2023-09-19T08:22:11;12.45;;;2.92;;
27612;SDS011;15036;48.094;-1.690;2023-09-19T08:24:36;13.75;;;2.97;;
27612;SDS011;15036;48.094;-1.690;2023-09-19T08:27:03;10.82;;;3.03;;
27612;SDS011;15036;48.094;-1.690;2023-09-19T08:29:30;7.82;;;2.30;;
27612;SDS011;15036;48.094;-1.690;2023-09-19T08:31:56;13.55;;;2.92;;
27612;SDS011;15036;48.094;-1.690;2023-09-19T08:34:23;10.40;;;2.90;;
27612;SDS011;15036;48.094;-1.690;2023-09-19T08:36:55;12.50;;;3.05;;
27612;SDS011;15036;48.094;-1.690;2023-09-19T08:39:24;11.90;;;3.13;;
27612;SDS011;15036;48.094;-1.690;2023-09-19T08:41:56;8.48;;;2.30;;
27612;SDS011;15036;48.094;-1.690;2023-09-19T08:44:24;10.00;;;2.20;;
27612;SDS011;15036;48.094;-1.690;2023-09-19T08:46:49;10.88;;;2.75;;
27612;SDS011;15036;48.094;-1.690;2023-09-19T08:55:06;11.45;;;2.97;;
27612;SDS011;15036;48.094;-1.690;2023-09-19T08:57:35;11.48;;;2.92;;
27612;SDS011;15036;48.094;-1.690;2023-09-19T09:00:04;12.02;;;2.92;;
27612;SDS011;15036;48.094;-1.690;2023-09-19T09:02:37;10.52;;;2.88;;
27612;SDS011;15036;48.094;-1.690;2023-09-19T09:05:07;13.68;;;2.83;;
27612;SDS011;15036;48.094;-1.690;2023-09-19T09:07:35;12.35;;;3.00;;
27612;SDS011;15036;48.094;-1.690;2023-09-19T09:10:04;13.63;;;3.13;;
27612;SDS011;15036;48.094;-1.690;2023-09-19T09:12:30;13.02;;;3.17;;
27612;SDS011;15036;48.094;-1.690;2023-09-19T09:14:56;12.15;;;3.08;;
27612;SDS011;15036;48.094;-1.690;2023-09-19T09:17:22;15.50;;;3.42;;
27612;SDS011;15036;48.094;-1.690;2023-09-19T09:19:49;10.50;;;2.70;;
27612;SDS011;15036;48.094;-1.690;2023-09-19T09:22:17;13.00;;;3.08;;
27612;SDS011;15036;48.094;-1.690;2023-09-19T09:24:58;11.60;;;2.92;;
27612;SDS011;15036;48.094;-1.690;2023-09-19T09:27:26;12.38;;;3.13;;
27612;SDS011;15036;48.094;-1.690;2023-09-19T09:29:52;13.13;;;2.90;;
27612;SDS011;15036;48.094;-1.690;2023-09-19T09:32:23;14.77;;;3.45;;
27612;SDS011;15036;48.094;-1.690;2023-09-19T09:34:54;13.02;;;3.53;;
27612;SDS011;15036;48.094;-1.690;2023-09-19T09:37:20;18.52;;;3.70;;
27612;SDS011;15036;48.094;-1.690;2023-09-19T09:39:50;16.83;;;3.05;;
27612;SDS011;15036;48.094;-1.690;2023-09-19T09:47:53;13.68;;;3.22;;
27612;SDS011;15036;48.094;-1.690;2023-09-19T09:52:56;13.98;;;2.97;;
27612;SDS011;15036;48.094;-1.690;2023-09-19T09:55:36;12.52;;;3.03;;
27612;SDS011;15036;48.094;-1.690;2023-09-19T09:58:24;9.90;;;3.08;;
27612;SDS011;15036;48.094;-1.690;2023-09-19T10:00:57;10.68;;;2.85;;
27612;SDS011;15036;48.094;-1.690;2023-09-19T10:03:39;11.30;;;2.92;;
27612;SDS011;15036;48.094;-1.690;2023-09-19T10:06:11;16.23;;;3.50;;
27612;SDS011;15036;48.094;-1.690;2023-09-19T10:09:06;11.27;;;3.22;;
27612;SDS011;15036;48.094;-1.690;2023-09-19T10:12:02;8.70;;;2.97;;
27612;SDS011;15036;48.094;-1.690;2023-09-19T10:14:33;9.20;;;3.03;;
27612;SDS011;15036;48.094;-1.690;2023-09-19T10:17:03;7.85;;;2.85;;
27612;SDS011;15036;48.094;-1.690;2023-09-19T10:19:34;9.52;;;3.33;;
27612;SDS011;15036;48.094;-1.690;2023-09-19T10:22:02;7.10;;;2.38;;
27612;SDS011;15036;48.094;-1.690;2023-09-19T10:24:30;11.00;;;2.95;;
27612;SDS011;15036;48.094;-1.690;2023-09-19T10:26:59;12.13;;;3.05;;
27612;SDS011;15036;48.094;-1.690;2023-09-19T10:29:25;13.02;;;3.22;;
27612;SDS011;15036;48.094;-1.690;2023-09-19T10:31:56;12.57;;;2.63;;
27612;SDS011;15036;48.094;-1.690;2023-09-19T10:34:23;14.73;;;3.58;;
27612;SDS011;15036;48.094;-1.690;2023-09-19T10:36:51;11.50;;;2.60;;
27612;SDS011;15036;48.094;-1.690;2023-09-19T10:39:18;11.85;;;2.50;;
27612;SDS011;15036;48.094;-1.690;2023-09-19T10:41:47;11.25;;;3.13;;
27612;SDS011;15036;48.094;-1.690;2023-09-19T10:44:19;12.02;;;2.70;;
27612;SDS011;15036;48.094;-1.690;2023-09-19T10:46:53;9.63;;;2.75;;
27612;SDS011;15036;48.094;-1.690;2023-09-19T10:49:20;10.43;;;2.83;;
27612;SDS011;15036;48.094;-1.690;2023-09-19T10:51:46;11.35;;;3.40;;
27612;SDS011;15036;48.094;-1.690;2023-09-19T10:54:15;10.27;;;2.92;;
27612;SDS011;15036;48.094;-1.690;2023-09-19T10:56:48;11.43;;;3.53;;
27612;SDS011;15036;48.094;-1.690;2023-09-19T10:59:20;9.85;;;2.65;;
27612;SDS011;15036;48.094;-1.690;2023-09-19T11:07:09;18.60;;;3.25;;
27612;SDS011;15036;48.094;-1.690;2023-09-19T11:15:01;9.52;;;3.25;;
27612;SDS011;15036;48.094;-1.690;2023-09-19T11:17:36;10.30;;;3.50;;
27612;SDS011;15036;48.094;-1.690;2023-09-19T11:30:37;8.13;;;3.00;;
27612;SDS011;15036;48.094;-1.690;2023-09-19T11:36:06;10.77;;;3.05;;
27612;SDS011;15036;48.094;-1.690;2023-09-19T11:49:18;8.77;;;3.00;;
27612;SDS011;15036;48.094;-1.690;2023-09-19T11:51:55;9.05;;;2.88;;
27612;SDS011;15036;48.094;-1.690;2023-09-19T11:54:21;9.35;;;3.30;;
27612;SDS011;15036;48.094;-1.690;2023-09-19T11:56:51;8.30;;;3.20;;
27612;SDS011;15036;48.094;-1.690;2023-09-19T11:59:26;9.43;;;3.05;;
27612;SDS011;15036;48.094;-1.690;2023-09-19T12:02:06;12.65;;;3.40;;
27612;SDS011;15036;48.094;-1.690;2023-09-19T12:04:43;6.85;;;2.95;;
27612;SDS011;15036;48.094;-1.690;2023-09-19T12:07:15;7.47;;;2.88;;
27612;SDS011;15036;48.094;-1.690;2023-09-19T12:09:41;9.95;;;3.08;;
27612;SDS011;15036;48.094;-1.690;2023-09-19T12:12:09;9.85;;;3.22;;
27612;SDS011;15036;48.094;-1.690;2023-09-19T12:14:37;8.98;;;3.03;;
27612;SDS011;15036;48.094;-1.690;2023-09-19T12:17:04;8.40;;;3.00;;
27612;SDS011;15036;48.094;-1.690;2023-09-19T12:19:29;11.45;;;2.90;;
27612;SDS011;15036;48.094;-1.690;2023-09-19T12:22:01;8.98;;;2.95;;
27612;SDS011;15036;48.094;-1.690;2023-09-19T12:24:31;9.45;;;2.80;;
27612;SDS011;15036;48.094;-1.690;2023-09-19T12:27:01;10.98;;;3.10;;
27612;SDS011;15036;48.094;-1.690;2023-09-19T12:29:30;10.70;;;3.15;;
27612;SDS011;15036;48.094;-1.690;2023-09-19T12:31:57;11.18;;;3.50;;
27612;SDS011;15036;48.094;-1.690;2023-09-19T12:34:27;9.00;;;2.85;;
27612;SDS011;15036;48.094;-1.690;2023-09-19T12:37:12;10.60;;;3.00;;
27612;SDS011;15036;48.094;-1.690;2023-09-19T12:39:48;10.93;;;3.15;;
27612;SDS011;15036;48.094;-1.690;2023-09-19T12:42:26;11.13;;;3.00;;
27612;SDS011;15036;48.094;-1.690;2023-09-19T12:44:57;12.15;;;2.95;;
27612;SDS011;15036;48.094;-1.690;2023-09-19T12:47:25;10.05;;;3.28;;
27612;SDS011;15036;48.094;-1.690;2023-09-19T12:52:44;7.95;;;3.08;;
27612;SDS011;15036;48.094;-1.690;2023-09-19T12:58:11;9.57;;;3.13;;
27612;SDS011;15036;48.094;-1.690;2023-09-19T13:00:38;9.57;;;3.47;;
27612;SDS011;15036;48.094;-1.690;2023-09-19T13:06:01;16.48;;;3.92;;
27612;SDS011;15036;48.094;-1.690;2023-09-19T13:13:25;8.40;;;3.35;;
27612;SDS011;15036;48.094;-1.690;2023-09-19T13:15:52;12.48;;;3.70;;
27612;SDS011;15036;48.094;-1.690;2023-09-19T13:18:18;9.90;;;3.15;;
27612;SDS011;15036;48.094;-1.690;2023-09-19T13:21:05;10.40;;;3.47;;
27612;SDS011;15036;48.094;-1.690;2023-09-19T13:23:31;12.48;;;3.50;;
27612;SDS011;15036;48.094;-1.690;2023-09-19T13:25:57;11.10;;;3.92;;
27612;SDS011;15036;48.094;-1.690;2023-09-19T13:28:22;11.85;;;3.30;;
27612;SDS011;15036;48.094;-1.690;2023-09-19T13:30:47;10.38;;;3.40;;
27612;SDS011;15036;48.094;-1.690;2023-09-19T13:33:13;8.13;;;3.28;;
27612;SDS011;15036;48.094;-1.690;2023-09-19T13:35:45;10.82;;;3.72;;
27612;SDS011;15036;48.094;-1.690;2023-09-19T13:38:13;11.00;;;3.88;;
27612;SDS011;15036;48.094;-1.690;2023-09-19T13:40:38;10.48;;;3.88;;
27612;SDS011;15036;48.094;-1.690;2023-09-19T13:43:04;9.80;;;3.35;;
27612;SDS011;15036;48.094;-1.690;2023-09-19T13:45:31;9.93;;;3.47;;
27612;SDS011;15036;48.094;-1.690;2023-09-19T13:47:57;11.15;;;3.90;;
27612;SDS011;15036;48.094;-1.690;2023-09-19T13:50:24;10.85;;;3.30;;
27612;SDS011;15036;48.094;-1.690;2023-09-19T13:52:50;9.20;;;3.20;;
27612;SDS011;15036;48.094;-1.690;2023-09-19T13:55:16;10.82;;;4.20;;
27612;SDS011;15036;48.094;-1.690;2023-09-19T13:57:45;13.65;;;4.10;;
27612;SDS011;15036;48.094;-1.690;2023-09-19T14:00:12;12.93;;;4.10;;
27612;SDS011;15036;48.094;-1.690;2023-09-19T14:02:41;10.68;;;3.78;;
27612;SDS011;15036;48.094;-1.690;2023-09-19T14:05:08;11.48;;;3.75;;
27612;SDS011;15036;48.094;-1.690;2023-09-19T14:07:33;12.40;;;3.95;;
27612;SDS011;15036;48.094;-1.690;2023-09-19T14:09:58;13.02;;;3.97;;
27612;SDS011;15036;48.094;-1.690;2023-09-19T14:12:24;11.20;;;3.95;;
27612;SDS011;15036;48.094;-1.690;2023-09-19T14:14:49;11.82;;;3.85;;
27612;SDS011;15036;48.094;-1.690;2023-09-19T14:17:16;12.65;;;4.55;;
27612;SDS011;15036;48.094;-1.690;2023-09-19T14:19:41;9.43;;;3.80;;
27612;SDS011;15036;48.094;-1.690;2023-09-19T14:22:08;13.48;;;4.05;;
27612;SDS011;15036;48.094;-1.690;2023-09-19T14:24:35;10.98;;;3.67;;
27612;SDS011;15036;48.094;-1.690;2023-09-19T14:27:00;10.88;;;3.90;;
27612;SDS011;15036;48.094;-1.690;2023-09-19T14:29:29;10.18;;;4.18;;
27612;SDS011;15036;48.094;-1.690;2023-09-19T14:31:55;11.13;;;4.38;;
27612;SDS011;15036;48.094;-1.690;2023-09-19T14:34:22;12.38;;;4.35;;
27612;SDS011;15036;48.094;-1.690;2023-09-19T14:36:48;16.42;;;4.45;;
27612;SDS011;15036;48.094;-1.690;2023-09-19T14:39:14;11.15;;;3.67;;
27612;SDS011;15036;48.094;-1.690;2023-09-19T14:41:39;13.02;;;4.05;;
27612;SDS011;15036;48.094;-1.690;2023-09-19T14:44:04;13.45;;;4.05;;
27612;SDS011;15036;48.094;-1.690;2023-09-19T14:46:30;11.85;;;4.40;;
27612;SDS011;15036;48.094;-1.690;2023-09-19T14:48:56;11.23;;;4.72;;
27612;SDS011;15036;48.094;-1.690;2023-09-19T14:51:24;11.25;;;4.03;;
27612;SDS011;15036;48.094;-1.690;2023-09-19T14:53:50;11.10;;;4.18;;
27612;SDS011;15036;48.094;-1.690;2023-09-19T14:56:15;10.90;;;4.18;;
27612;SDS011;15036;48.094;-1.690;2023-09-19T14:58:43;9.75;;;4.30;;
27612;SDS011;15036;48.094;-1.690;2023-09-19T15:01:09;11.23;;;4.07;;
27612;SDS011;15036;48.094;-1.690;2023-09-19T15:03:35;9.20;;;3.78;;
27612;SDS011;15036;48.094;-1.690;2023-09-19T15:06:01;11.65;;;4.00;;
27612;SDS011;15036;48.094;-1.690;2023-09-19T15:08:29;11.70;;;4.22;;
27612;SDS011;15036;48.094;-1.690;2023-09-19T15:10:55;11.05;;;4.38;;
27612;SDS011;15036;48.094;-1.690;2023-09-19T15:13:23;12.50;;;4.28;;
27612;SDS011;15036;48.094;-1.690;2023-09-19T15:15:52;12.07;;;4.80;;
27612;SDS011;15036;48.094;-1.690;2023-09-19T15:18:18;10.30;;;4.13;;
27612;SDS011;15036;48.094;-1.690;2023-09-19T15:20:44;13.50;;;4.63;;
27612;SDS011;15036;48.094;-1.690;2023-09-19T15:23:10;10.77;;;4.32;;
27612;SDS011;15036;48.094;-1.690;2023-09-19T15:25:36;12.95;;;4.55;;
27612;SDS011;15036;48.094;-1.690;2023-09-19T15:28:01;11.93;;;4.15;;
27612;SDS011;15036;48.094;-1.690;2023-09-19T15:30:36;9.40;;;4.07;;
27612;SDS011;15036;48.094;-1.690;2023-09-19T15:35:28;14.65;;;4.45;;
27612;SDS011;15036;48.094;-1.690;2023-09-19T15:37:54;9.70;;;4.30;;
27612;SDS011;15036;48.094;-1.690;2023-09-19T15:40:21;12.48;;;4.82;;
27612;SDS011;15036;48.094;-1.690;2023-09-19T15:42:48;13.30;;;4.85;;
27612;SDS011;15036;48.094;-1.690;2023-09-19T15:45:14;12.88;;;4.57;;
27612;SDS011;15036;48.094;-1.690;2023-09-19T15:47:41;11.60;;;4.72;;
27612;SDS011;15036;48.094;-1.690;2023-09-19T15:50:07;12.48;;;5.10;;
27612;SDS011;15036;48.094;-1.690;2023-09-19T15:52:35;14.27;;;4.78;;
27612;SDS011;15036;48.094;-1.690;2023-09-19T15:55:02;12.02;;;4.55;;
27612;SDS011;15036;48.094;-1.690;2023-09-19T15:57:28;13.48;;;5.22;;